Nearby METAR Reports

 

EGHI - Southampton Wx C, Hampshire, United Kingdom
Distance from station: SE 2mi, 3km
Updated: 23/02/2018 19:20
Clear
Clear
 Wind from varies
Wind: varies 3 mph , 6 km/h
Temperature: 0°C
Dew Point: -5°C
Humidity: 69%
Barometer: 1018 hPa
Summary: Clear
Visibility: greater than 7 miles , 10 km
2018/02/23 19:20 EGHI 231920Z VRB03KT CAVOK 00/M05 Q1018
EGVP - Middle Wallop, Hampshire, United Kingdom
Distance from station: NW 14mi, 23km
Updated: 23/02/2018 18:50
Clear
Clear
 Wind from ENE
Wind: ENE 10 mph , 17 km/h
Temperature: 1°C
Wind Chill: -3°C
Dew Point: -4°C
Humidity: 70%
Barometer: 1018 hPa
Clouds: Clear
Visibility: 6 miles , 10 km
2018/02/23 18:50 EGVP 231850Z AUTO 07009KT 9999 // NCD 01/M04 Q1018
 
EGDM - Boscombe Down, Dorset, United Kingdom
Distance from station: NW 21mi, 34km
Updated: 23/02/2018 18:50
Clear
Clear
 Wind from E
Wind: E 12 mph , 19 km/h
Temperature: 0°C
Wind Chill: -5°C
Dew Point: -4°C
Humidity: 75%
Barometer: 1018 hPa
Clouds: Clear
Visibility: 6 miles , 10 km
2018/02/23 18:50 EGDM 231850Z AUTO 08010KT 9999 NCD M00/M04 Q1018
EGHH - Bournemouth Airp, Dorset, United Kingdom
Distance from station: WSW 23mi, 38km
Updated: 23/02/2018 19:20
Clear
Clear
 Wind from E
Wind: E 8 mph , 13 km/h
Temperature: 1°C
Wind Chill: -3°C
Dew Point: -4°C
Humidity: 70%
Barometer: 1018 hPa
Summary: Clear
Visibility: greater than 7 miles , 10 km
2018/02/23 19:20 EGHH 231920Z 08007KT CAVOK 01/M04 Q1018
 
EGVO - Odiham Raf, Hampshire, United Kingdom
Distance from station: NE 26mi, 42km
Updated: 23/02/2018 18:50
Few Clouds
Few Clouds
 Wind from ENE
Wind: ENE 13 mph , 20 km/h
Temperature: 0°C
Wind Chill: -6°C
Dew Point: -4°C
Humidity: 75%
Barometer: 1018 hPa
Clouds: Few Clouds
Visibility: 6 miles , 10 km
Cloud details: Few Clouds 762 m
2018/02/23 18:50 EGVO 231850Z AUTO 07011KT 9999 FEW025/// 00/M04 Q1018
EGLF - Farnborough, Hampshire, United Kingdom
Distance from station: NE 34mi, 56km
Updated: 23/02/2018 19:20
Partly cloudy
Partly cloudy
 Wind from ENE
Wind: ENE 9 mph , 15 km/h
Temperature: 0°C
Wind Chill: -4°C
Dew Point: -4°C
Humidity: 75%
Barometer: 1019 hPa
Clouds: Partly cloudy
Visibility: 6 miles , 10 km
Cloud details: Partly cloudy 792 m
2018/02/23 19:20 EGLF 231920Z 07008KT 9999 SCT026 00/M04 Q1019
 
EGDL - Lyneham Raf, Wiltshire, United Kingdom
Distance from station: NW 45mi, 72km
Updated: 21/06/2013 08:50
NOT Current
Mostly cloudy
Mostly cloudy
 Wind from WSW
Wind: WSW 9 mph , 15 km/h
Temperature: 14°C
Dew Point: 14°C
Humidity: 100%
Barometer: 1010 hPa
Clouds: Mostly cloudy
Cloud details: Mostly cloudy 61 m
Mostly cloudy 427 m
2013/06/21 07:50 EGDL 210750Z AUTO 25008KT //// // BKN002/// BKN014/// 14/14 Q1010
EGUB - Benson Raf, Oxfordshire, United Kingdom
Distance from station: NNE 47mi, 76km
Updated: 23/02/2018 18:50
Mostly cloudy
Mostly cloudy
 Wind from ENE
Wind: ENE 12 mph , 19 km/h
Temperature: 1°C
Wind Chill: -4°C
Dew Point: -4°C
Humidity: 70%
Barometer: 1019 hPa
Clouds: Mostly cloudy
Visibility: 6 miles , 10 km
Cloud details: Mostly cloudy 853 m
2018/02/23 18:50 EGUB 231850Z AUTO 07010KT 9999 // BKN028/// 01/M04 Q1019
 
EGKA - Shoreham-By-Sea, West Sussex, United Kingdom
Distance from station: E 48mi, 77km
Updated: 23/02/2018 19:20
Clear
Clear
 Wind from NE
Wind: NE 3 mph , 6 km/h
Temperature: 0°C
Dew Point: -3°C
Humidity: 80%
Barometer: 1018 hPa
Summary: Clear
Visibility: greater than 7 miles , 10 km
2018/02/23 19:20 EGKA 231920Z 04003KT CAVOK 00/M03 Q1018
EGVA - Fairford Raf, Gloucestershire, United Kingdom
Distance from station: NNW 51mi, 82km
Updated: 23/02/2018 18:56
Few Clouds
Few Clouds
 Wind from E
Wind: E 12 mph , 19 km/h
Temperature: 1°C
Wind Chill: -4°C
Dew Point: -4°C
Humidity: 70%
Barometer: 1018.6 hPa
Clouds: Few Clouds
Cloud details: Few Clouds 914 m
2018/02/23 18:56 EGVA 231856Z AUTO 09010KT M M FEW030 01/M04 A3008 RMK AO2 SLP195 T00091045 RVRNO $
 
EGDY - Yeovilton (navy), Somerset, United Kingdom
Distance from station: W 54mi, 87km
Updated: 23/02/2018 18:50
Clear
Clear
 Wind from E
Wind: E 14 mph , 22 km/h
Temperature: 2°C
Wind Chill: -3°C
Dew Point: -3°C
Humidity: 70%
Barometer: 1018 hPa
Clouds: Clear
Visibility: 6 miles , 10 km
2018/02/23 18:50 EGDY 231850Z AUTO 08012KT 9999 NCD 02/M03 Q1018
EGKK - London/Gatwick A, West Sussex, United Kingdom
Distance from station: ENE 54mi, 87km
Updated: 23/02/2018 19:20
Few Clouds
Few Clouds
 Wind from E
Wind: E 8 mph , 13 km/h
Temperature: 0°C
Wind Chill: -4°C
Dew Point: -4°C
Humidity: 75%
Barometer: 1018 hPa
Clouds: Few Clouds
Visibility: 6 miles , 9 km
Cloud details: Few Clouds 732 m
2018/02/23 19:20 EGKK 231920Z 08007KT 9000 FEW024 M00/M04 Q1018
 
EGLL - London/Heathrow, Middlesex, United Kingdom
Distance from station: NE 54mi, 87km
Updated: 23/02/2018 19:20
Partly cloudy
Partly cloudy
 Wind from E
Wind: E 12 mph , 19 km/h
Temperature: 2°C
Wind Chill: -2°C
Dew Point: -3°C
Humidity: 70%
Barometer: 1019 hPa
Clouds: Partly cloudy
Visibility: 6 miles , 10 km
Cloud details: Partly cloudy 823 m
2018/02/23 19:20 EGLL 231920Z AUTO 08010KT 9999 SCT027 02/M03 Q1019 NOSIG
EGVN - Brize Norton Raf, Oxfordshire, United Kingdom
Distance from station: N 56mi, 90km
Updated: 23/02/2018 18:50
Partly cloudy
Partly cloudy
 Wind from E
Wind: E 10 mph , 17 km/h
Temperature: 2°C
Wind Chill: -2°C
Dew Point: -4°C
Humidity: 65%
Barometer: 1019 hPa
Clouds: Partly cloudy
Visibility: 6 miles , 10 km
Cloud details: Partly cloudy 853 m
2018/02/23 18:50 EGVN 231850Z 10009KT 9999 SCT028 02/M04 Q1019 NOSIG
 
EGWU - Northolt Raf, Middlesex, United Kingdom
Distance from station: NE 58mi, 93km
Updated: 23/02/2018 18:50
Mostly cloudy
Mostly cloudy
 Wind from E
Wind: E 15 mph , 24 km/h
Temperature: 2°C
Wind Chill: -3°C
Dew Point: -4°C
Humidity: 65%
Barometer: 1019 hPa
Clouds: Mostly cloudy
Visibility: 6 miles , 10 km
Cloud details: Mostly cloudy 823 m
2018/02/23 18:50 EGWU 231850Z 09013KT 9999 BKN027 02/M04 Q1019 BLU NOSIG
EGGD - Bristol/Lulsgate, Somerset, United Kingdom
Distance from station: WNW 64mi, 103km
Updated: 23/02/2018 19:20
Clear
Clear
 Wind from E
Wind: E 10 mph , 17 km/h
Temperature: 0°C
Wind Chill: -4°C
Dew Point: -4°C
Humidity: 75%
Barometer: 1017 hPa
Clouds: Clear
Visibility: 6 miles , 10 km
2018/02/23 19:20 EGGD 231920Z AUTO 08009KT 9999 NCD M00/M04 Q1017
 
EGKB - Biggin Hill, Kent,United Kingdom
Distance from station: ENE 65mi, 105km
Updated: 23/02/2018 19:20
Mostly cloudy
Mostly cloudy
 Wind from ENE
Wind: ENE 8 mph , 13 km/h
Temperature: 0°C
Wind Chill: -4°C
Dew Point: -3°C
Humidity: 80%
Barometer: 1018 hPa
Clouds: Mostly cloudy
Visibility: 6 miles , 10 km
Cloud details: Mostly cloudy 701 m
2018/02/23 19:20 EGKB 231920Z 07007KT 9999 BKN023 00/M03 Q1018
EGLC - London City Airp, Greater London, United Kingdom
Distance from station: ENE 72mi, 116km
Updated: 23/02/2018 19:20
Overcast
Overcast
 Wind from ENE
Wind: ENE 10 mph , 17 km/h
Temperature: 3°C
Wind Chill: -1°C
Dew Point: -3°C
Humidity: 65%
Barometer: 1020 hPa
Clouds: Overcast
Visibility: 6 miles , 10 km
Cloud details: Overcast 853 m
2018/02/23 19:20 EGLC 231920Z AUTO 06009KT 020V080 9999 OVC028 03/M03 Q1020
 
EGBJ - Staverton, Northamptonshire, United Kingdom
Distance from station: NNW 73mi, 117km
Updated: 23/02/2018 18:50
Few Clouds
Few Clouds
 Wind from E
Wind: E 7 mph , 11 km/h
Temperature: 3°C
Wind Chill: 0°C
Dew Point: -3°C
Humidity: 65%
Barometer: 1019 hPa
Clouds: Few Clouds
Visibility: 6 miles , 10 km
Cloud details: Few Clouds 1463 m
2018/02/23 18:50 EGBJ 231850Z 08006KT 9999 FEW048 03/M03 Q1019
EGGW - Luton Airport, Bedfordshire, United Kingdom
Distance from station: NE 76mi, 122km
Updated: 23/02/2018 19:20
Mostly cloudy
Mostly cloudy
 Wind from ENE
Wind: ENE 8 mph , 13 km/h
Temperature: 0°C
Wind Chill: -4°C
Dew Point: -3°C
Humidity: 80%
Barometer: 1019 hPa
Clouds: Mostly cloudy
Visibility: 6 miles , 10 km
Cloud details: Mostly cloudy 701 m
2018/02/23 19:20 EGGW 231920Z AUTO 07007KT 9999 BKN023 M00/M03 Q1019